createdAt,value
2023-05-04T00:02:21.478Z,3.50
2023-05-04T00:04:48.133Z,3.10
2023-05-04T00:07:14.554Z,4.25
2023-05-04T00:09:40.913Z,3.25
2023-05-04T00:12:07.946Z,4.00
2023-05-04T00:14:34.732Z,3.55
2023-05-04T00:17:02.859Z,3.15
2023-05-04T00:19:29.243Z,3.55
2023-05-04T00:21:55.574Z,3.10
2023-05-04T00:24:21.896Z,3.25
2023-05-04T00:26:48.175Z,3.63
2023-05-04T00:29:14.549Z,3.65
2023-05-04T00:31:41.048Z,3.72
2023-05-04T00:34:07.656Z,3.65
2023-05-04T00:36:34.452Z,3.50
2023-05-04T00:39:01.058Z,2.88
2023-05-04T00:41:27.473Z,3.65
2023-05-04T00:43:53.907Z,3.60
2023-05-04T00:46:20.323Z,3.47
2023-05-04T00:48:49.110Z,3.50
2023-05-04T00:51:16.814Z,3.35
2023-05-04T00:53:43.811Z,3.13
2023-05-04T00:56:10.993Z,4.35
2023-05-04T00:58:37.362Z,3.63
2023-05-04T01:01:03.982Z,3.08
2023-05-04T01:03:31.643Z,3.80
2023-05-04T01:06:13.394Z,3.42
2023-05-04T01:08:45.395Z,3.13
2023-05-04T01:11:17.506Z,3.88
2023-05-04T01:13:45.494Z,3.83
2023-05-04T01:16:14.649Z,3.25
2023-05-04T01:18:41.968Z,3.70
2023-05-04T01:21:09.690Z,3.50
2023-05-04T01:23:36.347Z,4.35
2023-05-04T01:26:12.225Z,3.45
2023-05-04T01:28:44.225Z,3.47
2023-05-04T01:31:14.112Z,3.30
2023-05-04T01:33:42.779Z,3.30
2023-05-04T01:36:09.652Z,3.13
2023-05-04T01:38:36.314Z,3.00
2023-05-04T01:41:02.643Z,3.85
2023-05-04T01:43:28.992Z,4.38
2023-05-04T01:45:55.335Z,3.53
2023-05-04T01:48:21.695Z,3.20
2023-05-04T01:50:48.004Z,3.67
2023-05-04T01:53:14.399Z,3.58
2023-05-04T01:55:40.785Z,3.90
2023-05-04T01:58:08.381Z,3.72
2023-05-04T02:00:34.703Z,3.35
2023-05-04T02:03:01.194Z,3.33
2023-05-04T02:05:27.931Z,3.47
2023-05-04T02:07:54.286Z,3.53
2023-05-04T02:10:20.567Z,3.33
2023-05-04T02:12:47.110Z,4.00
2023-05-04T02:15:13.544Z,3.63
2023-05-04T02:17:40.085Z,3.80
2023-05-04T02:20:07.331Z,3.75
2023-05-04T02:22:34.665Z,3.13
2023-05-04T02:25:00.968Z,3.55
2023-05-04T02:27:27.306Z,3.70
2023-05-04T02:29:54.095Z,3.78
2023-05-04T02:32:20.470Z,3.63
2023-05-04T02:34:46.827Z,3.95
2023-05-04T02:37:13.170Z,3.40
2023-05-04T02:39:39.621Z,3.40
2023-05-04T02:42:06.026Z,3.80
2023-05-04T02:44:32.622Z,3.53
2023-05-04T02:46:58.985Z,4.03
2023-05-04T02:49:25.327Z,3.50
2023-05-04T02:51:51.713Z,3.90
2023-05-04T02:54:18.071Z,3.65
2023-05-04T02:56:44.426Z,3.60
2023-05-04T02:59:10.741Z,3.97
2023-05-04T03:01:37.147Z,3.42
2023-05-04T03:04:03.746Z,4.15
2023-05-04T03:06:30.501Z,4.65
2023-05-04T03:08:56.793Z,3.60
2023-05-04T03:11:26.665Z,3.78
2023-05-04T03:13:53.105Z,3.55
2023-05-04T03:16:20.876Z,3.45
2023-05-04T03:21:31.864Z,4.45
2023-05-04T03:23:59.032Z,3.60
2023-05-04T03:26:25.391Z,4.13
2023-05-04T03:28:52.039Z,3.90
2023-05-04T03:31:18.496Z,3.72
2023-05-04T03:33:48.866Z,4.18
2023-05-04T03:36:15.606Z,4.13
2023-05-04T03:38:42.750Z,3.65
2023-05-04T03:41:10.510Z,4.18
2023-05-04T03:43:36.794Z,4.28
2023-05-04T03:46:03.192Z,4.32
2023-05-04T03:48:29.564Z,4.57
2023-05-04T03:50:55.958Z,4.40
2023-05-04T03:53:22.336Z,4.13
2023-05-04T03:55:48.668Z,4.20
2023-05-04T03:58:15.112Z,7.63
2023-05-04T04:00:41.515Z,5.47
2023-05-04T04:03:12.738Z,4.95
2023-05-04T04:05:39.393Z,4.03
2023-05-04T04:08:05.829Z,4.60
2023-05-04T04:10:32.437Z,4.60
2023-05-04T04:12:58.897Z,4.38
2023-05-04T04:15:25.354Z,5.55
2023-05-04T04:17:51.714Z,4.65
2023-05-04T04:20:18.185Z,4.70
2023-05-04T04:22:44.550Z,5.40
2023-05-04T04:25:10.936Z,5.88
2023-05-04T04:27:37.708Z,6.38
2023-05-04T04:30:05.220Z,5.90
2023-05-04T04:32:32.035Z,6.13
2023-05-04T04:34:58.385Z,6.03
2023-05-04T04:37:24.736Z,5.47
2023-05-04T04:39:51.015Z,5.20
2023-05-04T04:42:17.473Z,5.05
2023-05-04T04:44:45.985Z,5.78
2023-05-04T04:47:12.473Z,4.95
2023-05-04T04:49:38.744Z,5.32
2023-05-04T04:52:05.824Z,5.78
2023-05-04T04:54:32.370Z,5.30
2023-05-04T04:56:59.396Z,5.80
2023-05-04T04:59:25.713Z,5.50
2023-05-04T05:01:52.003Z,5.45
2023-05-04T05:04:19.845Z,6.75
2023-05-04T05:06:46.172Z,6.00
2023-05-04T05:09:12.533Z,6.38
2023-05-04T05:11:38.839Z,8.10
2023-05-04T05:14:06.341Z,8.98
2023-05-04T05:16:32.664Z,10.70
2023-05-04T05:18:58.963Z,9.98
2023-05-04T05:21:25.260Z,9.00
2023-05-04T05:23:51.591Z,7.88
2023-05-04T05:26:17.891Z,7.78
2023-05-04T05:28:44.174Z,7.13
2023-05-04T05:31:11.380Z,7.30
2023-05-04T05:33:38.628Z,7.05
2023-05-04T05:36:05.961Z,7.72
2023-05-04T05:38:32.394Z,7.35
2023-05-04T05:40:58.685Z,8.65
2023-05-04T05:43:25.226Z,7.05
2023-05-04T05:45:51.585Z,8.45
2023-05-04T05:48:17.965Z,7.35
2023-05-04T05:50:44.265Z,6.57
2023-05-04T05:53:10.675Z,6.65
2023-05-04T05:55:36.983Z,6.32
2023-05-04T05:58:03.827Z,7.72
2023-05-04T06:00:30.284Z,7.50
2023-05-04T06:02:56.717Z,6.55
2023-05-04T06:05:23.725Z,5.93
2023-05-04T06:07:50.120Z,7.53
2023-05-04T06:10:16.542Z,7.68
2023-05-04T06:12:42.853Z,7.10
2023-05-04T06:15:09.575Z,7.22
2023-05-04T06:17:36.109Z,7.32
2023-05-04T06:20:02.632Z,7.50
2023-05-04T06:22:29.079Z,6.65
2023-05-04T06:24:59.005Z,8.20
2023-05-04T06:27:31.472Z,7.40
2023-05-04T06:29:57.759Z,6.90
2023-05-04T06:32:24.097Z,6.70
2023-05-04T06:34:57.231Z,7.20
2023-05-04T06:37:23.758Z,6.93
2023-05-04T06:39:50.053Z,6.85
2023-05-04T06:42:16.399Z,7.78
2023-05-04T06:44:42.792Z,6.65
2023-05-04T06:47:09.258Z,6.47
2023-05-04T06:49:35.595Z,6.70
2023-05-04T06:52:01.924Z,7.72
2023-05-04T06:54:28.304Z,6.45
2023-05-04T06:56:54.630Z,7.25
2023-05-04T06:59:21.504Z,6.82
2023-05-04T07:01:47.904Z,7.40
2023-05-04T07:04:16.294Z,7.90
2023-05-04T07:06:43.405Z,5.85
2023-05-04T07:09:09.731Z,7.10
2023-05-04T07:11:36.296Z,6.60
2023-05-04T07:14:02.631Z,7.75
2023-05-04T07:16:29.022Z,6.95
2023-05-04T07:18:55.369Z,7.63
2023-05-04T07:21:27.476Z,7.53
2023-05-04T07:23:55.599Z,7.38
2023-05-04T07:26:22.856Z,7.57
2023-05-04T07:28:49.162Z,7.53
2023-05-04T07:31:15.854Z,8.00
2023-05-04T07:33:42.584Z,8.75
2023-05-04T07:36:09.079Z,7.07
2023-05-04T07:38:35.518Z,8.38
2023-05-04T07:41:01.947Z,8.27
2023-05-04T07:43:28.238Z,7.88
2023-05-04T07:45:54.640Z,8.68
2023-05-04T07:48:21.673Z,7.00
2023-05-04T07:50:48.809Z,7.18
2023-05-04T07:53:15.106Z,7.40
2023-05-04T07:55:41.413Z,8.90
2023-05-04T07:58:10.142Z,7.95
2023-05-04T08:00:36.583Z,7.03
2023-05-04T08:03:03.279Z,7.28
2023-05-04T08:05:29.719Z,6.65
2023-05-04T08:07:56.224Z,7.15
2023-05-04T08:10:22.537Z,7.35
2023-05-04T08:12:48.946Z,7.22
2023-05-04T08:15:16.073Z,7.68
2023-05-04T08:17:42.571Z,7.15
2023-05-04T08:20:10.026Z,7.05
2023-05-04T08:22:36.637Z,7.75
2023-05-04T08:25:03.332Z,7.95
2023-05-04T08:27:29.871Z,7.80
2023-05-04T08:29:59.154Z,8.48
2023-05-04T08:32:28.286Z,6.95
2023-05-04T08:34:54.667Z,6.78
2023-05-04T08:37:21.120Z,6.63
2023-05-04T08:39:47.422Z,7.75
2023-05-04T08:42:13.822Z,6.90
2023-05-04T08:44:41.164Z,6.75
2023-05-04T08:47:09.127Z,6.15
2023-05-04T08:49:35.636Z,6.40
2023-05-04T08:52:07.508Z,6.95
2023-05-04T08:54:35.336Z,6.65
2023-05-04T08:57:04.641Z,6.25
2023-05-04T08:59:32.108Z,6.72
2023-05-04T09:01:59.576Z,7.40
2023-05-04T09:04:28.653Z,5.70
2023-05-04T09:06:56.734Z,6.20
2023-05-04T09:09:27.597Z,6.68
2023-05-04T09:11:53.884Z,6.22
2023-05-04T09:14:22.291Z,6.70
2023-05-04T09:16:48.664Z,6.95
2023-05-04T09:19:19.426Z,5.68
2023-05-04T09:21:47.016Z,6.28
2023-05-04T09:24:13.355Z,6.47
2023-05-04T09:26:39.699Z,5.65
2023-05-04T09:29:16.078Z,6.70
2023-05-04T09:31:47.937Z,5.63
2023-05-04T09:34:14.992Z,5.18
2023-05-04T09:36:44.688Z,5.78
2023-05-04T09:39:15.806Z,4.68
2023-05-04T09:44:18.829Z,3.80
2023-05-04T09:46:58.861Z,3.85
2023-05-04T09:49:36.170Z,3.95
2023-05-04T09:52:05.007Z,4.00
2023-05-04T09:54:35.128Z,3.58
2023-05-04T09:57:06.717Z,3.70
2023-05-04T09:59:33.641Z,2.90
2023-05-04T10:02:04.813Z,2.78
2023-05-04T10:04:41.026Z,3.10
2023-05-04T10:07:07.785Z,3.75
2023-05-04T10:09:34.831Z,2.92
2023-05-04T10:12:05.186Z,2.78
2023-05-04T10:14:33.831Z,3.47
2023-05-04T10:17:18.044Z,3.15
2023-05-04T10:20:11.899Z,3.22
2023-05-04T10:23:07.810Z,3.00
2023-05-04T10:26:05.971Z,3.00
2023-05-04T10:28:38.060Z,2.85
2023-05-04T10:31:06.185Z,2.63
2023-05-04T10:33:40.162Z,3.15
2023-05-04T10:36:07.659Z,3.10
2023-05-04T10:38:38.942Z,3.15
2023-05-04T10:41:19.366Z,3.50
2023-05-04T10:43:50.847Z,3.20
2023-05-04T10:46:21.489Z,3.55
2023-05-04T10:48:48.520Z,3.97
2023-05-04T10:51:22.389Z,4.22
2023-05-04T10:53:49.214Z,3.85
2023-05-04T10:56:28.390Z,3.70
2023-05-04T10:58:54.984Z,3.63
2023-05-04T11:01:21.956Z,4.00
2023-05-04T11:03:49.450Z,3.85
2023-05-04T11:06:19.528Z,4.18
2023-05-04T11:08:49.157Z,4.00
2023-05-04T11:11:16.166Z,3.63
2023-05-04T11:13:46.452Z,4.38
2023-05-04T11:16:26.774Z,3.95
2023-05-04T11:18:54.289Z,4.40
2023-05-04T11:21:27.565Z,4.07
2023-05-04T11:23:58.542Z,4.00
2023-05-04T11:28:51.889Z,3.72
2023-05-04T11:31:20.037Z,4.18
2023-05-04T11:33:51.348Z,3.88
2023-05-04T11:36:18.552Z,3.03
2023-05-04T11:38:45.385Z,3.60
2023-05-04T11:41:12.468Z,3.95
2023-05-04T11:43:40.525Z,4.93
2023-05-04T11:46:07.861Z,4.30
2023-05-04T11:48:35.490Z,3.70
2023-05-04T11:51:03.110Z,4.78
2023-05-04T11:53:39.810Z,3.67
2023-05-04T11:56:08.841Z,4.43
2023-05-04T11:58:35.606Z,4.40
2023-05-04T12:01:02.015Z,5.32
2023-05-04T12:03:39.860Z,4.18
2023-05-04T12:06:18.344Z,4.22
2023-05-04T12:08:44.766Z,4.00
2023-05-04T12:11:25.129Z,3.95
2023-05-04T12:14:13.281Z,3.72
2023-05-04T12:16:42.996Z,4.57
2023-05-04T12:19:12.326Z,3.97
2023-05-04T12:21:51.555Z,3.85
2023-05-04T12:24:17.906Z,4.38
2023-05-04T12:26:44.248Z,4.03
2023-05-04T12:29:10.585Z,4.25
2023-05-04T12:31:36.897Z,4.80
2023-05-04T12:34:03.201Z,4.82
2023-05-04T12:36:29.584Z,4.35
2023-05-04T12:38:56.185Z,4.57
2023-05-04T12:41:23.212Z,3.85
2023-05-04T12:43:49.503Z,4.50
2023-05-04T12:46:21.073Z,3.38
2023-05-04T12:48:47.408Z,4.20
2023-05-04T12:51:13.784Z,3.88
2023-05-04T12:53:41.036Z,3.78
2023-05-04T12:56:07.448Z,4.30
2023-05-04T12:58:33.905Z,4.40
2023-05-04T13:01:00.237Z,3.80
2023-05-04T13:03:26.819Z,4.05
2023-05-04T13:05:53.426Z,3.72
2023-05-04T13:08:19.898Z,3.42
2023-05-04T13:10:47.049Z,3.72
2023-05-04T13:13:16.058Z,4.40
2023-05-04T13:15:43.211Z,3.58
2023-05-04T13:18:09.766Z,3.40
2023-05-04T13:20:36.160Z,3.75
2023-05-04T13:23:02.522Z,3.72
2023-05-04T13:25:28.812Z,3.83
2023-05-04T13:27:55.162Z,3.35
2023-05-04T13:30:21.894Z,3.90
2023-05-04T13:32:48.985Z,3.80
2023-05-04T13:35:16.157Z,3.47
2023-05-04T13:37:42.475Z,3.47
2023-05-04T13:40:09.437Z,4.10
2023-05-04T13:42:37.215Z,3.70
2023-05-04T13:45:04.555Z,3.33
2023-05-04T13:47:31.460Z,3.80
2023-05-04T13:49:57.892Z,3.95
2023-05-04T13:52:24.296Z,4.60
2023-05-04T13:54:50.584Z,3.85
2023-05-04T13:57:16.969Z,3.85
2023-05-04T13:59:54.665Z,3.75
2023-05-04T14:02:25.042Z,3.65
2023-05-04T14:04:51.614Z,3.65
2023-05-04T14:07:17.945Z,3.55
2023-05-04T14:09:44.667Z,3.72
2023-05-04T14:12:11.055Z,3.90
2023-05-04T14:14:37.339Z,3.50
2023-05-04T14:17:03.995Z,3.78
2023-05-04T14:19:30.320Z,4.20
2023-05-04T14:21:56.615Z,3.67
2023-05-04T14:24:24.646Z,4.78
2023-05-04T14:26:51.055Z,4.15
2023-05-04T14:29:17.356Z,4.28
2023-05-04T14:31:43.746Z,3.75
2023-05-04T14:34:10.748Z,3.83
2023-05-04T14:36:37.179Z,3.28
2023-05-04T14:39:03.663Z,3.20
2023-05-04T14:41:33.689Z,3.85
2023-05-04T14:44:00.414Z,4.50
2023-05-04T14:46:28.853Z,3.85
2023-05-04T14:48:55.267Z,4.30
2023-05-04T14:51:29.956Z,4.28
2023-05-04T14:53:57.008Z,4.03
2023-05-04T14:56:23.329Z,3.75
2023-05-04T14:58:49.687Z,4.50
2023-05-04T15:01:16.212Z,4.10
2023-05-04T15:03:42.825Z,3.70
2023-05-04T15:06:10.124Z,4.07
2023-05-04T15:08:36.687Z,3.95
2023-05-04T15:11:03.008Z,3.75
2023-05-04T15:13:30.472Z,4.30
2023-05-04T15:15:56.788Z,4.10
2023-05-04T15:18:25.947Z,4.20
2023-05-04T15:20:52.375Z,3.40
2023-05-04T15:23:18.693Z,3.90
2023-05-04T15:25:45.010Z,3.67
2023-05-04T15:28:11.798Z,4.13
2023-05-04T15:30:39.215Z,3.95
2023-05-04T15:33:06.254Z,4.07
2023-05-04T15:35:34.132Z,4.35
2023-05-04T15:38:01.227Z,4.22
2023-05-04T15:40:27.981Z,4.38
2023-05-04T15:42:54.566Z,4.53
2023-05-04T15:45:21.354Z,4.78
2023-05-04T15:47:47.734Z,4.03
2023-05-04T15:50:14.160Z,4.47
2023-05-04T15:52:40.576Z,3.92
2023-05-04T15:55:23.781Z,4.60
2023-05-04T15:57:52.386Z,5.13
2023-05-04T16:00:19.166Z,4.63
2023-05-04T16:02:45.600Z,4.53
2023-05-04T16:05:12.022Z,4.40
2023-05-04T16:07:38.497Z,4.75
2023-05-04T16:10:05.718Z,4.75
2023-05-04T16:12:32.200Z,4.40
2023-05-04T16:14:58.537Z,4.40
2023-05-04T16:17:24.949Z,3.90
2023-05-04T16:19:51.683Z,4.70
2023-05-04T16:22:18.025Z,4.30
2023-05-04T16:24:44.313Z,4.22
2023-05-04T16:27:10.606Z,3.80
2023-05-04T16:29:36.925Z,4.45
2023-05-04T16:32:03.430Z,4.47
2023-05-04T16:34:29.741Z,4.05
2023-05-04T16:36:56.072Z,4.30
2023-05-04T16:39:26.790Z,4.93
2023-05-04T16:41:53.137Z,4.95
2023-05-04T16:44:19.428Z,4.50
2023-05-04T16:46:46.077Z,5.70
2023-05-04T16:49:14.596Z,5.47
2023-05-04T16:51:41.458Z,4.50
2023-05-04T16:54:07.899Z,4.57
2023-05-04T16:56:34.370Z,4.47
2023-05-04T16:59:00.922Z,4.57
2023-05-04T17:01:27.309Z,5.05
2023-05-04T17:03:53.860Z,4.68
2023-05-04T17:06:20.496Z,4.72
2023-05-04T17:08:46.856Z,4.30
2023-05-04T17:11:13.184Z,4.72
2023-05-04T17:13:39.491Z,5.30
2023-05-04T17:16:06.362Z,4.25
2023-05-04T17:18:32.766Z,4.38
2023-05-04T17:20:59.059Z,4.22
2023-05-04T17:23:25.432Z,5.10
2023-05-04T17:25:51.794Z,4.15
2023-05-04T17:28:18.132Z,4.70
2023-05-04T17:30:44.527Z,4.75
2023-05-04T17:33:11.053Z,3.90
2023-05-04T17:35:37.350Z,4.13
2023-05-04T17:38:03.821Z,4.68
2023-05-04T17:40:30.130Z,4.18
2023-05-04T17:42:56.903Z,4.40
2023-05-04T17:45:23.364Z,4.20
2023-05-04T17:47:52.918Z,4.50
2023-05-04T17:50:19.842Z,4.22
2023-05-04T17:52:54.615Z,3.70
2023-05-04T17:55:24.252Z,3.58
2023-05-04T17:57:52.200Z,3.58
2023-05-04T18:00:18.787Z,3.60
2023-05-04T18:02:45.181Z,3.33
2023-05-04T18:05:11.746Z,3.78
2023-05-04T18:07:38.478Z,3.97
2023-05-04T18:10:05.470Z,3.47
2023-05-04T18:12:31.985Z,3.47
2023-05-04T18:14:58.308Z,5.30
2023-05-04T18:17:26.341Z,4.43
2023-05-04T18:19:52.668Z,4.40
2023-05-04T18:22:19.332Z,4.70
2023-05-04T18:24:49.585Z,5.30
2023-05-04T18:27:16.305Z,6.05
2023-05-04T18:29:42.884Z,6.93
2023-05-04T18:32:10.580Z,6.43
2023-05-04T18:34:37.666Z,7.10
2023-05-04T18:37:04.100Z,9.88
2023-05-04T18:39:31.866Z,9.68
2023-05-04T18:42:00.725Z,7.13
2023-05-04T18:44:27.013Z,6.40
2023-05-04T18:46:53.331Z,5.00
2023-05-04T18:49:19.681Z,4.75
2023-05-04T18:51:46.174Z,5.45
2023-05-04T18:54:14.785Z,4.43
2023-05-04T18:56:41.105Z,4.68
2023-05-04T18:59:07.675Z,4.80
2023-05-04T19:01:34.056Z,5.85
2023-05-04T19:04:00.589Z,5.55
2023-05-04T19:06:27.058Z,6.97
2023-05-04T19:08:53.526Z,6.63
2023-05-04T19:11:19.861Z,5.57
2023-05-04T19:13:46.164Z,4.72
2023-05-04T19:16:12.882Z,5.25
2023-05-04T19:18:39.676Z,5.15
2023-05-04T19:21:06.253Z,4.65
2023-05-04T19:23:32.799Z,4.50
2023-05-04T19:25:59.118Z,4.45
2023-05-04T19:28:25.546Z,4.60
2023-05-04T19:30:53.759Z,4.38
2023-05-04T19:33:20.200Z,4.55
2023-05-04T19:35:46.607Z,4.40
2023-05-04T19:38:12.976Z,4.50
2023-05-04T19:40:40.929Z,4.85
2023-05-04T19:43:08.599Z,4.20
2023-05-04T19:45:34.918Z,4.93
2023-05-04T19:48:03.463Z,4.55
2023-05-04T19:50:30.205Z,4.53
2023-05-04T19:52:56.670Z,4.78
2023-05-04T19:55:23.129Z,4.82
2023-05-04T19:57:49.924Z,4.88
2023-05-04T20:00:19.201Z,4.70
2023-05-04T20:02:46.609Z,5.07
2023-05-04T20:05:13.565Z,4.72
2023-05-04T20:07:40.070Z,4.80
2023-05-04T20:10:08.112Z,4.97
2023-05-04T20:12:34.777Z,4.55
2023-05-04T20:15:01.284Z,4.68
2023-05-04T20:17:27.681Z,5.43
2023-05-04T20:19:53.981Z,5.25
2023-05-04T20:22:20.402Z,4.90
2023-05-04T20:24:46.874Z,4.43
2023-05-04T20:27:13.259Z,4.35
2023-05-04T20:29:39.606Z,4.70
2023-05-04T20:32:07.124Z,4.57
2023-05-04T20:34:33.685Z,4.97
2023-05-04T20:37:00.166Z,5.60
2023-05-04T20:39:26.487Z,5.45
2023-05-04T20:41:52.966Z,5.22
2023-05-04T20:44:19.319Z,5.28
2023-05-04T20:46:45.600Z,5.20
2023-05-04T20:49:12.227Z,4.93
2023-05-04T20:51:39.354Z,5.13
2023-05-04T20:54:05.735Z,5.70
2023-05-04T20:56:32.041Z,5.40
2023-05-04T20:58:58.452Z,4.93
2023-05-04T21:01:24.851Z,4.72
2023-05-04T21:03:51.345Z,5.20
2023-05-04T21:06:17.756Z,5.13
2023-05-04T21:08:44.139Z,5.40
2023-05-04T21:11:10.461Z,5.30
2023-05-04T21:13:36.755Z,5.72
2023-05-04T21:16:03.233Z,5.68
2023-05-04T21:18:29.592Z,5.03
2023-05-04T21:20:55.988Z,5.75
2023-05-04T21:23:23.570Z,5.28
2023-05-04T21:25:49.921Z,5.40
2023-05-04T21:28:16.245Z,6.28
2023-05-04T21:30:43.322Z,6.18
2023-05-04T21:33:09.664Z,5.68
2023-05-04T21:35:35.970Z,4.90
2023-05-04T21:38:02.322Z,5.53
2023-05-04T21:40:28.932Z,5.07
2023-05-04T21:42:55.351Z,5.85
2023-05-04T21:45:21.695Z,5.25
2023-05-04T21:47:48.491Z,5.57
2023-05-04T21:50:16.054Z,5.90
2023-05-04T21:52:42.353Z,5.90
2023-05-04T21:55:09.181Z,6.03
2023-05-04T21:57:35.659Z,5.93
2023-05-04T22:00:02.405Z,5.68
2023-05-04T22:02:31.820Z,5.97
2023-05-04T22:04:58.267Z,6.00
2023-05-04T22:07:24.554Z,5.75
2023-05-04T22:09:51.887Z,5.70
2023-05-04T22:12:18.185Z,5.68
2023-05-04T22:14:44.472Z,5.05
2023-05-04T22:17:10.812Z,4.97
2023-05-04T22:19:38.059Z,5.55
2023-05-04T22:22:04.443Z,5.60
2023-05-04T22:24:30.736Z,5.90
2023-05-04T22:26:57.056Z,5.75
2023-05-04T22:29:23.369Z,5.47
2023-05-04T22:31:49.675Z,5.53
2023-05-04T22:34:15.987Z,5.95
2023-05-04T22:36:42.335Z,5.63
2023-05-04T22:39:09.183Z,5.68
2023-05-04T22:41:35.683Z,6.15
2023-05-04T22:44:01.995Z,5.43
2023-05-04T22:46:28.308Z,5.18
2023-05-04T22:48:54.647Z,5.95
2023-05-04T22:51:20.961Z,6.00
2023-05-04T22:53:47.351Z,5.53
2023-05-04T22:56:13.654Z,5.88
2023-05-04T22:58:40.018Z,5.75
2023-05-04T23:01:12.953Z,5.70
2023-05-04T23:03:39.397Z,5.97
2023-05-04T23:06:06.331Z,5.90
2023-05-04T23:08:32.634Z,5.90
2023-05-04T23:10:58.961Z,5.57
2023-05-04T23:13:25.339Z,5.47
2023-05-04T23:15:52.076Z,6.03
2023-05-04T23:18:18.549Z,5.47
2023-05-04T23:20:44.923Z,5.93
2023-05-04T23:23:11.344Z,5.47
2023-05-04T23:25:37.626Z,5.93
2023-05-04T23:28:04.177Z,5.43
2023-05-04T23:30:30.470Z,5.85
2023-05-04T23:32:57.602Z,6.15
2023-05-04T23:35:23.906Z,6.18
2023-05-04T23:37:50.533Z,5.88
2023-05-04T23:40:16.853Z,5.78
2023-05-04T23:42:43.161Z,5.50
2023-05-04T23:45:09.913Z,6.72
2023-05-04T23:47:36.214Z,6.80
2023-05-04T23:50:02.881Z,6.22
2023-05-04T23:52:29.349Z,6.25
2023-05-04T23:54:55.734Z,5.97
2023-05-04T23:57:22.126Z,6.88
2023-05-04T23:59:48.393Z,6.15
